createdAt,value
2018-07-23T00:00:15.639Z,18.70
2018-07-23T00:02:44.329Z,18.60
2018-07-23T00:07:41.275Z,18.60
2018-07-23T00:10:10.007Z,18.60
2018-07-23T00:12:38.703Z,18.60
2018-07-23T00:15:07.431Z,18.50
2018-07-23T00:17:36.161Z,18.50
2018-07-23T00:20:05.006Z,18.50
2018-07-23T00:22:33.714Z,18.40
2018-07-23T00:25:02.434Z,18.40
2018-07-23T00:29:59.570Z,18.40
2018-07-23T00:32:28.266Z,18.40
2018-07-23T00:34:56.956Z,18.30
2018-07-23T00:37:25.674Z,18.30
2018-07-23T00:39:54.362Z,18.30
2018-07-23T00:42:22.990Z,18.30
2018-07-23T00:44:51.702Z,18.30
2018-07-23T00:47:20.558Z,18.30
2018-07-23T00:49:49.284Z,18.30
2018-07-23T00:52:17.960Z,18.20
2018-07-23T00:54:46.756Z,18.10
2018-07-23T00:57:15.369Z,18.10
2018-07-23T00:59:44.044Z,18.10
2018-07-23T01:02:12.788Z,18.00
2018-07-23T01:04:41.491Z,18.10
2018-07-23T01:07:10.171Z,18.00
2018-07-23T01:12:07.189Z,18.00
2018-07-23T01:14:35.843Z,17.90
2018-07-23T01:19:32.831Z,17.80
2018-07-23T01:22:01.516Z,17.80
2018-07-23T01:24:30.215Z,17.80
2018-07-23T01:26:58.876Z,17.80
2018-07-23T01:31:55.854Z,17.80
2018-07-23T01:36:52.844Z,17.80
2018-07-23T01:39:21.528Z,17.80
2018-07-23T01:41:50.203Z,17.80
2018-07-23T01:44:18.925Z,17.70
2018-07-23T01:46:47.619Z,17.70
2018-07-23T01:49:16.315Z,17.80
2018-07-23T01:51:45.039Z,17.70
2018-07-23T01:54:13.713Z,17.80
2018-07-23T01:56:42.400Z,17.80
2018-07-23T01:59:11.054Z,17.70
2018-07-23T02:01:39.788Z,17.70
2018-07-23T02:04:08.623Z,17.70
2018-07-23T02:06:37.303Z,17.70
2018-07-23T02:09:08.878Z,17.70
2018-07-23T02:11:37.632Z,17.70
2018-07-23T02:14:06.366Z,17.70
2018-07-23T02:16:35.076Z,17.70
2018-07-23T02:19:03.880Z,17.80
2018-07-23T02:21:32.730Z,17.90
2018-07-23T02:24:01.466Z,17.90
2018-07-23T02:26:30.179Z,18.00
2018-07-23T02:28:58.867Z,18.00
2018-07-23T02:31:27.549Z,18.00
2018-07-23T02:33:56.194Z,18.00
2018-07-23T02:36:24.895Z,18.00
2018-07-23T02:38:53.593Z,18.00
2018-07-23T02:41:22.272Z,18.00
2018-07-23T02:43:50.962Z,18.00
2018-07-23T02:46:19.667Z,18.00
2018-07-23T02:48:48.334Z,17.90
2018-07-23T02:51:17.062Z,17.90
2018-07-23T02:53:45.751Z,17.90
2018-07-23T02:56:14.438Z,17.90
2018-07-23T02:58:43.126Z,17.90
2018-07-23T03:03:40.089Z,17.90
2018-07-23T03:06:08.762Z,17.90
2018-07-23T03:08:37.397Z,17.80
2018-07-23T03:11:06.133Z,17.70
2018-07-23T03:13:34.856Z,17.70
2018-07-23T03:16:03.602Z,17.80
2018-07-23T03:18:32.279Z,17.80
2018-07-23T03:21:00.958Z,17.80
2018-07-23T03:23:29.729Z,17.80
2018-07-23T03:25:58.374Z,17.80
2018-07-23T03:28:27.089Z,17.70
2018-07-23T03:30:55.758Z,17.70
2018-07-23T03:33:25.896Z,17.70
2018-07-23T03:35:54.564Z,17.70
2018-07-23T03:38:23.228Z,17.80
2018-07-23T03:40:51.946Z,17.80
2018-07-23T03:43:20.644Z,17.80
2018-07-23T03:45:49.350Z,17.90
2018-07-23T03:48:18.071Z,17.90
2018-07-23T03:50:46.768Z,17.90
2018-07-23T03:53:15.471Z,17.80
2018-07-23T03:55:44.216Z,17.80
2018-07-23T04:00:41.236Z,17.80
2018-07-23T04:03:09.929Z,17.70
2018-07-23T04:05:39.241Z,17.60
2018-07-23T04:08:07.968Z,17.60
2018-07-23T04:10:36.654Z,17.60
2018-07-23T04:13:05.350Z,17.70
2018-07-23T04:15:34.070Z,17.70
2018-07-23T04:18:03.648Z,17.80
2018-07-23T04:20:34.165Z,17.80
2018-07-23T04:23:03.684Z,17.70
2018-07-23T04:25:32.373Z,17.80
2018-07-23T04:28:01.470Z,17.80
2018-07-23T04:30:30.225Z,17.80
2018-07-23T04:32:58.892Z,17.80
2018-07-23T04:35:27.623Z,17.80
2018-07-23T04:37:56.462Z,17.90
2018-07-23T04:40:25.071Z,17.90
2018-07-23T04:42:53.827Z,17.90
2018-07-23T04:45:22.509Z,17.90
2018-07-23T04:47:51.211Z,18.00
2018-07-23T04:50:19.864Z,18.00
2018-07-23T04:52:48.590Z,18.00
2018-07-23T04:55:17.334Z,18.00
2018-07-23T04:57:46.020Z,18.10
2018-07-23T05:00:14.762Z,18.20
2018-07-23T05:02:43.434Z,18.20
2018-07-23T05:05:12.161Z,18.30
2018-07-23T05:07:40.864Z,18.40
2018-07-23T05:10:09.572Z,18.50
2018-07-23T05:12:38.246Z,18.60
2018-07-23T05:15:07.308Z,18.60
2018-07-23T05:17:36.016Z,18.60
2018-07-23T05:20:04.812Z,18.70
2018-07-23T05:22:33.537Z,18.80
2018-07-23T05:25:02.217Z,18.80
2018-07-23T05:27:30.943Z,18.80
2018-07-23T05:29:59.653Z,18.80
2018-07-23T05:32:28.471Z,18.90
2018-07-23T05:34:57.197Z,18.80
2018-07-23T05:37:25.931Z,18.90
2018-07-23T05:39:54.609Z,19.10
2018-07-23T05:42:23.307Z,19.20
2018-07-23T05:44:52.006Z,19.30
2018-07-23T05:47:20.746Z,19.50
2018-07-23T05:49:49.445Z,19.70
2018-07-23T05:52:18.095Z,19.80
2018-07-23T05:54:46.753Z,20.00
2018-07-23T05:57:15.426Z,20.20
2018-07-23T05:59:44.145Z,20.30
2018-07-23T06:02:12.800Z,20.30
2018-07-23T06:04:41.536Z,20.50
2018-07-23T06:07:10.247Z,20.60
2018-07-23T06:09:39.018Z,20.70
2018-07-23T06:12:07.800Z,20.80
2018-07-23T06:14:36.533Z,20.90
2018-07-23T06:17:05.604Z,20.90
2018-07-23T06:19:34.419Z,21.00
2018-07-23T06:22:03.069Z,21.00
2018-07-23T06:24:31.777Z,21.10
2018-07-23T06:27:00.464Z,21.20
2018-07-23T06:29:29.362Z,21.30
2018-07-23T06:31:58.108Z,21.40
2018-07-23T06:34:27.113Z,21.50
2018-07-23T06:36:55.844Z,21.70
2018-07-23T06:39:24.560Z,21.80
2018-07-23T06:41:53.270Z,22.00
2018-07-23T06:46:50.297Z,22.10
2018-07-23T06:49:18.976Z,22.10
2018-07-23T06:51:47.654Z,22.20
2018-07-23T06:54:16.395Z,22.20
2018-07-23T06:56:45.064Z,22.30
2018-07-23T06:59:13.785Z,22.40
2018-07-23T07:01:42.437Z,22.50
2018-07-23T07:04:11.178Z,22.70
2018-07-23T07:06:39.860Z,22.70
2018-07-23T07:09:09.523Z,22.70
2018-07-23T07:11:38.607Z,22.80
2018-07-23T07:14:07.862Z,22.90
2018-07-23T07:16:36.630Z,23.00
2018-07-23T07:19:05.300Z,23.00
2018-07-23T07:21:34.006Z,23.00
2018-07-23T07:24:02.712Z,23.20
2018-07-23T07:26:31.412Z,23.40
2018-07-23T07:29:00.209Z,23.40
2018-07-23T07:31:28.900Z,23.50
2018-07-23T07:33:57.592Z,23.70
2018-07-23T07:36:26.307Z,23.70
2018-07-23T07:38:54.984Z,23.80
2018-07-23T07:41:23.779Z,23.90
2018-07-23T07:43:52.494Z,24.10
2018-07-23T07:46:21.219Z,24.20
2018-07-23T07:48:49.910Z,24.40
2018-07-23T07:51:18.663Z,24.40
2018-07-23T07:53:47.371Z,24.40
2018-07-23T07:56:16.179Z,24.40
2018-07-23T07:58:44.894Z,24.50
2018-07-23T08:01:13.582Z,24.60
2018-07-23T08:03:42.286Z,24.70
2018-07-23T08:06:11.262Z,24.80
2018-07-23T08:08:39.991Z,24.90
2018-07-23T08:11:08.929Z,25.00
2018-07-23T08:13:37.615Z,25.10
2018-07-23T08:16:06.365Z,25.30
2018-07-23T08:18:35.125Z,25.30
2018-07-23T08:21:03.803Z,25.50
2018-07-23T08:23:32.581Z,25.50
2018-07-23T08:26:01.341Z,25.50
2018-07-23T08:28:30.079Z,25.60
2018-07-23T08:30:58.767Z,25.60
2018-07-23T08:33:27.531Z,25.60
2018-07-23T08:35:56.253Z,25.60
2018-07-23T08:38:25.045Z,25.60
2018-07-23T08:40:53.861Z,25.70
2018-07-23T08:43:22.591Z,25.80
2018-07-23T08:45:51.424Z,26.00
2018-07-23T08:48:20.129Z,26.10
2018-07-23T08:50:48.903Z,26.20
2018-07-23T08:53:17.591Z,26.30
2018-07-23T08:55:46.400Z,26.30
2018-07-23T08:58:15.193Z,26.30
2018-07-23T09:00:43.943Z,26.40
2018-07-23T09:03:12.727Z,26.60
2018-07-23T09:05:41.411Z,26.70
2018-07-23T09:08:10.143Z,26.80
2018-07-23T09:10:38.908Z,26.90
2018-07-23T09:13:07.675Z,27.00
2018-07-23T09:15:36.442Z,27.10
2018-07-23T09:18:05.328Z,27.20
2018-07-23T09:20:34.142Z,27.20
2018-07-23T09:23:02.830Z,27.20
2018-07-23T09:25:36.890Z,27.20
2018-07-23T09:28:05.710Z,27.40
2018-07-23T09:30:39.638Z,27.50
2018-07-23T09:33:08.469Z,27.60
2018-07-23T09:35:37.180Z,27.70
2018-07-23T09:38:06.051Z,27.80
2018-07-23T09:40:34.864Z,27.90
2018-07-23T09:43:04.095Z,28.00
2018-07-23T09:45:32.864Z,28.00
2018-07-23T09:48:01.596Z,27.90
2018-07-23T09:50:30.307Z,28.10
2018-07-23T09:52:59.041Z,28.20
2018-07-23T09:55:27.812Z,28.20
2018-07-23T09:57:56.566Z,28.30
2018-07-23T10:00:30.703Z,28.50
2018-07-23T10:02:59.523Z,28.50
2018-07-23T10:05:28.237Z,28.50
2018-07-23T10:07:56.959Z,28.70
2018-07-23T10:10:25.701Z,28.60
2018-07-23T10:12:54.549Z,28.60
2018-07-23T10:15:23.266Z,28.70
2018-07-23T10:17:52.078Z,28.90
2018-07-23T10:20:20.857Z,29.10
2018-07-23T10:22:49.574Z,29.20
2018-07-23T10:25:18.356Z,29.30
2018-07-23T10:27:47.302Z,29.40
2018-07-23T10:30:16.040Z,29.50
2018-07-23T10:32:44.827Z,29.60
2018-07-23T10:35:13.606Z,29.50
2018-07-23T10:37:42.279Z,29.60
2018-07-23T10:40:11.089Z,29.70
2018-07-23T10:42:39.794Z,29.70
2018-07-23T10:45:08.605Z,29.80
2018-07-23T10:47:37.357Z,29.80
2018-07-23T10:50:06.187Z,29.80
2018-07-23T10:52:34.994Z,29.90
2018-07-23T10:55:05.074Z,29.90
2018-07-23T10:57:33.836Z,30.10
2018-07-23T11:00:02.578Z,30.30
2018-07-23T11:02:31.332Z,30.40
2018-07-23T11:05:00.090Z,30.50
2018-07-23T11:07:28.841Z,30.60
2018-07-23T11:09:57.530Z,30.60
2018-07-23T11:12:26.378Z,30.60
2018-07-23T11:14:55.212Z,30.60
2018-07-23T11:17:24.082Z,30.70
2018-07-23T11:19:52.871Z,30.80
2018-07-23T11:22:21.724Z,31.00
2018-07-23T11:24:50.535Z,30.70
2018-07-23T11:27:19.304Z,30.80
2018-07-23T11:29:48.137Z,30.80
2018-07-23T11:32:16.934Z,30.90
2018-07-23T11:34:45.779Z,31.20
2018-07-23T11:37:14.604Z,31.10
2018-07-23T11:39:43.428Z,31.20
2018-07-23T11:42:12.143Z,31.50
2018-07-23T11:44:40.786Z,31.70
2018-07-23T11:47:09.578Z,31.90
2018-07-23T11:49:38.348Z,32.00
2018-07-23T11:52:14.354Z,32.10
2018-07-23T11:54:35.823Z,32.10
2018-07-23T11:57:04.745Z,32.10
2018-07-23T11:59:33.524Z,31.80
2018-07-23T12:02:02.285Z,31.80
2018-07-23T12:04:31.121Z,31.90
2018-07-23T12:06:59.794Z,32.10
2018-07-23T12:09:28.536Z,32.10
2018-07-23T12:11:57.444Z,32.20
2018-07-23T12:14:26.197Z,32.30
2018-07-23T12:16:54.985Z,32.60
2018-07-23T12:19:23.802Z,32.70
2018-07-23T12:21:52.480Z,32.90
2018-07-23T12:24:21.230Z,33.00
2018-07-23T12:26:49.974Z,33.10
2018-07-23T12:29:18.695Z,33.20
2018-07-23T12:31:47.427Z,33.30
2018-07-23T12:34:16.147Z,33.40
2018-07-23T12:36:44.941Z,33.40
2018-07-23T12:41:42.691Z,33.30
2018-07-23T12:44:11.797Z,33.40
2018-07-23T12:46:40.588Z,33.60
2018-07-23T12:49:09.386Z,33.60
2018-07-23T12:51:38.158Z,33.70
2018-07-23T12:54:06.956Z,33.70
2018-07-23T12:56:35.682Z,33.80
2018-07-23T12:59:04.404Z,34.00
2018-07-23T13:01:33.298Z,34.10
2018-07-23T13:04:02.066Z,34.00
2018-07-23T13:06:30.983Z,34.00
2018-07-23T13:08:59.780Z,34.00
2018-07-23T13:11:28.580Z,34.00
2018-07-23T13:13:57.398Z,34.10
2018-07-23T13:16:26.174Z,34.20
2018-07-23T13:18:54.985Z,34.30
2018-07-23T13:21:23.798Z,34.30
2018-07-23T13:23:52.719Z,34.40
2018-07-23T13:26:21.460Z,34.40
2018-07-23T13:28:50.277Z,34.50
2018-07-23T13:31:19.133Z,34.70
2018-07-23T13:33:47.943Z,35.00
2018-07-23T13:36:16.873Z,35.20
2018-07-23T13:38:45.676Z,35.30
2018-07-23T13:41:14.553Z,35.20
2018-07-23T13:43:43.392Z,35.20
2018-07-23T13:46:12.198Z,35.30
2018-07-23T13:48:40.954Z,35.30
2018-07-23T13:51:09.749Z,35.40
2018-07-23T13:53:38.541Z,35.60
2018-07-23T13:56:07.339Z,35.80
2018-07-23T14:01:04.505Z,35.90
2018-07-23T14:03:33.277Z,35.80
2018-07-23T14:06:02.163Z,35.80
2018-07-23T14:08:30.975Z,35.90
2018-07-23T14:10:59.864Z,36.10
2018-07-23T14:13:28.673Z,36.30
2018-07-23T14:15:57.476Z,36.50
2018-07-23T14:18:26.337Z,36.20
2018-07-23T14:20:55.169Z,36.20
2018-07-23T14:23:23.968Z,36.30
2018-07-23T14:25:52.780Z,36.40
2018-07-23T14:28:21.537Z,36.30
2018-07-23T14:30:50.347Z,36.00
2018-07-23T14:33:19.120Z,36.00
2018-07-23T14:35:47.921Z,36.00
2018-07-23T14:38:16.686Z,36.10
2018-07-23T14:40:45.520Z,36.30
2018-07-23T14:43:14.308Z,36.30
2018-07-23T14:45:43.106Z,36.40
2018-07-23T14:48:11.880Z,36.60
2018-07-23T14:50:40.680Z,36.40
2018-07-23T14:53:09.546Z,36.40
2018-07-23T14:55:38.329Z,36.50
2018-07-23T14:58:07.142Z,36.50
2018-07-23T15:00:35.911Z,36.40
2018-07-23T15:03:04.728Z,36.40
2018-07-23T15:05:33.454Z,36.30
2018-07-23T15:08:02.163Z,36.20
2018-07-23T15:10:30.939Z,36.20
2018-07-23T15:12:59.747Z,36.20
2018-07-23T15:15:28.563Z,36.20
2018-07-23T15:17:57.281Z,36.20
2018-07-23T15:20:26.093Z,36.10
2018-07-23T15:22:54.873Z,36.10
2018-07-23T15:25:23.648Z,35.90
2018-07-23T15:27:52.542Z,35.80
2018-07-23T15:30:21.285Z,35.80
2018-07-23T15:32:50.247Z,35.80
2018-07-23T15:35:19.133Z,35.80
2018-07-23T15:37:47.874Z,35.60
2018-07-23T15:40:16.663Z,35.40
2018-07-23T15:42:45.568Z,35.70
2018-07-23T15:45:14.420Z,36.00
2018-07-23T15:47:43.082Z,36.30
2018-07-23T15:50:11.904Z,36.50
2018-07-23T15:52:40.695Z,36.80
2018-07-23T15:55:09.390Z,37.10
2018-07-23T15:57:38.301Z,37.30
2018-07-23T16:00:07.183Z,37.50
2018-07-23T16:02:35.974Z,37.80
2018-07-23T16:05:04.785Z,37.90
2018-07-23T16:07:33.617Z,38.00
2018-07-23T16:10:02.425Z,37.90
2018-07-23T16:12:31.186Z,37.80
2018-07-23T16:15:00.038Z,37.50
2018-07-23T16:17:28.769Z,36.90
2018-07-23T16:19:57.892Z,36.40
2018-07-23T16:24:55.013Z,35.30
2018-07-23T16:27:23.854Z,35.10
2018-07-23T16:29:52.643Z,35.00
2018-07-23T16:34:49.777Z,35.00
2018-07-23T16:37:18.671Z,35.00
2018-07-23T16:39:47.423Z,34.80
2018-07-23T16:42:16.199Z,34.70
2018-07-23T16:44:44.972Z,34.50
2018-07-23T16:47:13.699Z,34.30
2018-07-23T16:49:42.378Z,34.10
2018-07-23T16:52:11.197Z,33.90
2018-07-23T16:54:39.907Z,33.80
2018-07-23T16:57:08.761Z,33.80
2018-07-23T16:59:37.683Z,33.70
2018-07-23T17:02:06.796Z,33.60
2018-07-23T17:04:35.532Z,33.60
2018-07-23T17:07:04.344Z,33.40
2018-07-23T17:09:33.171Z,33.40
2018-07-23T17:12:01.789Z,33.30
2018-07-23T17:14:30.517Z,33.20
2018-07-23T17:16:59.270Z,33.10
2018-07-23T17:19:27.984Z,32.90
2018-07-23T17:21:56.826Z,32.90
2018-07-23T17:24:25.677Z,32.80
2018-07-23T17:26:54.453Z,32.70
2018-07-23T17:29:23.262Z,32.60
2018-07-23T17:31:52.077Z,32.60
2018-07-23T17:34:20.939Z,32.60
2018-07-23T17:36:49.701Z,32.60
2018-07-23T17:39:18.487Z,32.50
2018-07-23T17:41:47.337Z,32.40
2018-07-23T17:44:16.012Z,32.40
2018-07-23T17:46:44.750Z,32.40
2018-07-23T17:49:13.516Z,32.20
2018-07-23T17:51:42.367Z,32.10
2018-07-23T17:54:11.203Z,31.90
2018-07-23T17:56:39.949Z,31.70
2018-07-23T17:59:08.780Z,31.50
2018-07-23T18:01:37.639Z,31.40
2018-07-23T18:04:06.429Z,31.40
2018-07-23T18:06:35.165Z,31.30
2018-07-23T18:09:05.863Z,31.30
2018-07-23T18:11:34.645Z,31.30
2018-07-23T18:14:03.397Z,31.20
2018-07-23T18:16:33.649Z,31.30
2018-07-23T18:19:02.489Z,31.20
2018-07-23T18:21:31.384Z,31.30
2018-07-23T18:24:00.133Z,31.30
2018-07-23T18:26:28.895Z,31.30
2018-07-23T18:28:57.728Z,31.30
2018-07-23T18:31:26.510Z,31.20
2018-07-23T18:33:55.271Z,31.20
2018-07-23T18:36:24.202Z,31.20
2018-07-23T18:38:53.055Z,31.10
2018-07-23T18:41:21.776Z,31.00
2018-07-23T18:43:51.478Z,31.00
2018-07-23T18:46:20.248Z,30.90
2018-07-23T18:49:41.136Z,30.90
2018-07-23T18:52:10.006Z,30.80
2018-07-23T18:54:39.205Z,30.70
2018-07-23T18:57:08.473Z,30.60
2018-07-23T18:59:37.364Z,30.50
2018-07-23T19:02:07.581Z,30.40
2018-07-23T19:04:36.431Z,30.30
2018-07-23T19:07:05.750Z,30.30
2018-07-23T19:09:34.529Z,30.20
2018-07-23T19:12:03.315Z,30.10
2018-07-23T19:14:32.127Z,30.00
2018-07-23T19:17:02.052Z,29.80
2018-07-23T19:19:30.810Z,29.60
2018-07-23T19:21:59.630Z,29.40
2018-07-23T19:24:28.432Z,29.20
2018-07-23T19:26:57.202Z,29.00
2018-07-23T19:29:25.961Z,28.90
2018-07-23T19:31:54.731Z,28.70
2018-07-23T19:34:23.599Z,28.60
2018-07-23T19:36:52.739Z,28.40
2018-07-23T19:41:50.593Z,28.20
2018-07-23T19:44:19.372Z,28.00
2018-07-23T19:46:48.099Z,27.90
2018-07-23T19:49:16.863Z,27.70
2018-07-23T19:51:45.696Z,27.60
2018-07-23T19:54:14.463Z,27.50
2018-07-23T19:56:43.189Z,27.40
2018-07-23T19:59:11.950Z,27.30
2018-07-23T20:01:40.729Z,27.20
2018-07-23T20:04:09.517Z,27.10
2018-07-23T20:09:09.170Z,27.00
2018-07-23T20:11:37.898Z,26.90
2018-07-23T20:14:06.765Z,26.80
2018-07-23T20:16:35.522Z,26.70
2018-07-23T20:19:04.416Z,26.60
2018-07-23T20:21:33.153Z,26.50
2018-07-23T20:24:02.723Z,26.50
2018-07-23T20:26:31.457Z,26.40
2018-07-23T20:29:00.321Z,26.40
2018-07-23T20:31:29.075Z,26.30
2018-07-23T20:33:57.827Z,26.30
2018-07-23T20:36:26.518Z,26.30
2018-07-23T20:38:55.456Z,26.10
2018-07-23T20:41:24.214Z,26.00
2018-07-23T20:43:52.959Z,26.00
2018-07-23T20:46:21.701Z,25.90
2018-07-23T20:48:50.447Z,25.90
2018-07-23T20:51:19.139Z,25.90
2018-07-23T20:53:47.880Z,25.80
2018-07-23T20:56:16.624Z,25.80
2018-07-23T20:58:45.309Z,25.70
2018-07-23T21:01:14.990Z,25.70
2018-07-23T21:03:43.741Z,25.60
2018-07-23T21:08:40.806Z,25.60
2018-07-23T21:11:09.938Z,25.60
2018-07-23T21:13:38.627Z,25.60
2018-07-23T21:16:07.403Z,25.50
2018-07-23T21:18:36.115Z,25.50
2018-07-23T21:21:04.901Z,25.50
2018-07-23T21:23:33.614Z,25.40
2018-07-23T21:26:02.352Z,25.50
2018-07-23T21:31:00.035Z,25.40
2018-07-23T21:33:28.829Z,25.40
2018-07-23T21:35:57.610Z,25.40
2018-07-23T21:38:26.321Z,25.30
2018-07-23T21:43:23.440Z,25.30
2018-07-23T21:45:52.191Z,25.20
2018-07-23T21:48:20.890Z,25.10
2018-07-23T21:50:49.571Z,25.10
2018-07-23T21:53:18.277Z,25.00
2018-07-23T21:55:46.974Z,25.00
2018-07-23T21:58:15.697Z,24.90
2018-07-23T22:00:44.505Z,24.90
2018-07-23T22:03:13.255Z,24.90
2018-07-23T22:05:41.976Z,24.80
2018-07-23T22:08:10.761Z,24.90
2018-07-23T22:10:39.521Z,24.90
2018-07-23T22:13:08.301Z,24.90
2018-07-23T22:15:37.011Z,24.80
2018-07-23T22:18:06.196Z,24.80
2018-07-23T22:20:34.975Z,24.80
2018-07-23T22:23:03.741Z,24.80
2018-07-23T22:25:32.509Z,24.70
2018-07-23T22:28:01.297Z,24.70
2018-07-23T22:30:30.101Z,24.70
2018-07-23T22:32:58.798Z,24.70
2018-07-23T22:35:27.513Z,24.70
2018-07-23T22:37:56.277Z,24.70
2018-07-23T22:40:24.967Z,24.70
2018-07-23T22:42:53.691Z,24.70
2018-07-23T22:45:22.501Z,24.70
2018-07-23T22:47:51.249Z,24.70
2018-07-23T22:50:20.010Z,24.60
2018-07-23T22:52:48.700Z,24.60
2018-07-23T22:55:17.491Z,24.50
2018-07-23T22:57:46.219Z,24.50
2018-07-23T23:00:14.994Z,24.50
2018-07-23T23:02:43.779Z,24.40
2018-07-23T23:05:12.504Z,24.30
2018-07-23T23:07:41.200Z,24.20
2018-07-23T23:10:09.908Z,24.10
2018-07-23T23:12:38.653Z,24.00
2018-07-23T23:15:07.438Z,23.90
2018-07-23T23:17:36.203Z,23.90
2018-07-23T23:20:05.064Z,23.90
2018-07-23T23:22:33.796Z,23.90
2018-07-23T23:25:02.579Z,23.80
2018-07-23T23:27:31.280Z,23.90
2018-07-23T23:30:00.086Z,23.80
2018-07-23T23:32:28.927Z,23.80
2018-07-23T23:34:57.971Z,23.80
2018-07-23T23:37:26.685Z,23.70
2018-07-23T23:39:55.398Z,23.70
2018-07-23T23:42:24.143Z,23.60
2018-07-23T23:44:52.857Z,23.70
2018-07-23T23:47:21.558Z,23.70
2018-07-23T23:49:50.262Z,23.60
2018-07-23T23:52:19.033Z,23.60
2018-07-23T23:54:47.728Z,23.60
2018-07-23T23:57:16.430Z,23.70
2018-07-23T23:59:45.121Z,23.70
